createdAt,value
2019-04-28T00:01:14.776Z,0
2019-04-28T00:06:22.254Z,0
2019-04-28T00:11:27.867Z,0
2019-04-28T00:16:33.294Z,0
2019-04-28T00:21:38.499Z,0
2019-04-28T00:26:45.621Z,0
2019-04-28T00:31:52.275Z,0
2019-04-28T00:36:56.891Z,0
2019-04-28T00:42:05.020Z,0
2019-04-28T00:47:12.215Z,0
2019-04-28T00:52:17.683Z,0
2019-04-28T00:57:22.550Z,0
2019-04-28T01:02:42.653Z,0
2019-04-28T01:07:56.568Z,0
2019-04-28T01:13:03.869Z,0
2019-04-28T01:18:11.330Z,0
2019-04-28T01:23:16.772Z,0
2019-04-28T01:28:23.152Z,0
2019-04-28T01:33:29.937Z,0
2019-04-28T01:38:35.632Z,0
2019-04-28T01:43:42.606Z,0
2019-04-28T01:48:47.463Z,0
2019-04-28T01:53:54.224Z,0
2019-04-28T01:59:01.464Z,0
2019-04-28T02:04:06.317Z,0
2019-04-28T02:09:11.754Z,0
2019-04-28T02:14:17.173Z,0
2019-04-28T02:19:24.121Z,0
2019-04-28T02:24:31.185Z,0
2019-04-28T02:29:36.048Z,0
2019-04-28T02:34:43.114Z,0
2019-04-28T02:39:50.911Z,0
2019-04-28T02:44:56.606Z,0
2019-04-28T02:50:04.605Z,0
2019-04-28T02:55:12.571Z,0
2019-04-28T03:00:17.698Z,0
2019-04-28T03:05:25.336Z,0
2019-04-28T03:10:33.056Z,0
2019-04-28T03:15:41.189Z,0
2019-04-28T03:20:46.867Z,0
2019-04-28T03:25:52.530Z,0
2019-04-28T03:30:57.937Z,0
2019-04-28T03:36:44.369Z,0
2019-04-28T03:41:51.472Z,0
2019-04-28T03:46:56.885Z,0
2019-04-28T03:52:07.001Z,0
2019-04-28T03:57:14.860Z,0
2019-04-28T04:02:25.143Z,0
2019-04-28T04:07:32.879Z,1
2019-04-28T04:12:40.830Z,0
2019-04-28T04:17:46.384Z,0
2019-04-28T04:22:53.174Z,1
2019-04-28T04:28:04.607Z,1
2019-04-28T04:33:12.712Z,0
2019-04-28T04:38:17.846Z,1
2019-04-28T04:43:25.137Z,1
2019-04-28T04:48:32.368Z,1
2019-04-28T04:53:37.512Z,1
2019-04-28T04:58:45.291Z,2
2019-04-28T05:03:51.350Z,2
2019-04-28T05:08:56.482Z,2
2019-04-28T05:14:01.618Z,2
2019-04-28T05:19:06.462Z,3
2019-04-28T05:24:20.272Z,2
2019-04-28T05:29:30.879Z,2
2019-04-28T05:34:35.343Z,3
2019-04-28T05:39:54.198Z,3
2019-04-28T05:45:01.213Z,4
2019-04-28T05:50:06.605Z,3
2019-04-28T05:55:12.020Z,2
2019-04-28T06:00:19.567Z,2
2019-04-28T06:05:24.951Z,3
2019-04-28T06:10:31.198Z,4
2019-04-28T06:15:36.383Z,5
2019-04-28T06:20:42.296Z,5
2019-04-28T06:25:47.436Z,4
2019-04-28T06:30:52.570Z,3
2019-04-28T06:35:57.153Z,3
2019-04-28T06:41:02.566Z,3
2019-04-28T06:46:07.697Z,4
2019-04-28T06:51:11.996Z,4
2019-04-28T06:56:16.844Z,4
2019-04-28T07:01:22.278Z,4
2019-04-28T07:06:27.130Z,4
2019-04-28T07:11:31.711Z,4
2019-04-28T07:16:37.133Z,5
2019-04-28T07:21:42.546Z,5
2019-04-28T07:26:47.131Z,5
2019-04-28T07:31:52.287Z,5
2019-04-28T07:36:57.719Z,5
2019-04-28T07:42:02.860Z,6
2019-04-28T07:47:08.273Z,7
2019-04-28T07:52:13.407Z,8
2019-04-28T07:57:18.538Z,7
2019-04-28T08:02:24.226Z,8
2019-04-28T08:07:29.634Z,11
2019-04-28T08:12:35.057Z,11
2019-04-28T08:17:39.912Z,13
2019-04-28T08:22:45.604Z,9
2019-04-28T08:27:51.017Z,7
2019-04-28T08:32:56.427Z,7
2019-04-28T08:38:01.285Z,8
2019-04-28T08:43:06.976Z,8
2019-04-28T08:48:12.116Z,7
2019-04-28T08:53:17.275Z,7
2019-04-28T08:58:22.664Z,6
2019-04-28T09:03:27.524Z,8
2019-04-28T09:08:32.934Z,9
2019-04-28T09:13:38.075Z,8
2019-04-28T09:18:43.767Z,6
2019-04-28T09:23:48.908Z,6
2019-04-28T09:28:54.046Z,8
2019-04-28T09:33:58.908Z,10
2019-04-28T09:39:03.770Z,11
2019-04-28T09:44:09.181Z,13
2019-04-28T09:49:14.315Z,13
2019-04-28T09:54:19.752Z,13
2019-04-28T09:59:24.610Z,13
2019-04-28T10:04:43.140Z,11
2019-04-28T10:09:48.299Z,11
2019-04-28T10:14:53.176Z,11
2019-04-28T10:19:58.884Z,14
2019-04-28T10:25:04.561Z,16
2019-04-28T10:30:09.967Z,20
2019-04-28T10:35:15.667Z,23
2019-04-28T10:40:21.366Z,20
2019-04-28T10:45:26.783Z,22
2019-04-28T10:50:32.475Z,25
2019-04-28T10:55:37.338Z,26
2019-04-28T11:00:42.764Z,30
2019-04-28T11:05:47.901Z,27
2019-04-28T11:10:52.763Z,18
2019-04-28T11:15:58.183Z,18
2019-04-28T11:21:03.042Z,17
2019-04-28T11:26:08.183Z,19
2019-04-28T11:31:13.047Z,21
2019-04-28T11:36:17.917Z,24
2019-04-28T11:41:23.342Z,36
2019-04-28T11:46:28.486Z,35
2019-04-28T11:51:33.345Z,27
2019-04-28T11:56:43.089Z,23
2019-04-28T12:01:48.230Z,21
2019-04-28T12:06:53.098Z,26
2019-04-28T12:11:57.958Z,35
2019-04-28T12:17:03.665Z,35
2019-04-28T12:22:08.818Z,28
2019-04-28T12:27:14.247Z,30
2019-04-28T12:32:19.678Z,35
2019-04-28T12:37:25.393Z,35
2019-04-28T12:42:30.260Z,40
2019-04-28T12:47:35.417Z,33
2019-04-28T12:52:40.846Z,33
2019-04-28T12:57:46.280Z,31
2019-04-28T13:02:51.428Z,37
2019-04-28T13:07:56.873Z,48
2019-04-28T13:13:01.748Z,62
2019-04-28T13:18:06.914Z,54
2019-04-28T13:23:11.566Z,33
2019-04-28T13:28:16.730Z,37
2019-04-28T13:33:21.917Z,36
2019-04-28T13:38:27.064Z,43
2019-04-28T13:43:32.228Z,33
2019-04-28T13:48:37.669Z,34
2019-04-28T13:53:43.126Z,36
2019-04-28T13:58:48.287Z,35
2019-04-28T14:03:54.038Z,36
2019-04-28T14:08:59.572Z,65
2019-04-28T14:14:04.229Z,39
2019-04-28T14:19:09.922Z,42
2019-04-28T14:24:14.818Z,40
2019-04-28T14:29:19.787Z,37
2019-04-28T14:34:25.570Z,35
2019-04-28T14:39:30.956Z,47
2019-04-28T14:44:36.457Z,61
2019-04-28T14:49:42.191Z,50
2019-04-28T14:54:47.933Z,67
2019-04-28T14:59:53.121Z,63
2019-04-28T15:05:30.264Z,60
2019-04-28T15:10:35.929Z,58
2019-04-28T15:15:41.390Z,55
2019-04-28T15:20:46.623Z,53
2019-04-28T15:25:51.735Z,53
2019-04-28T15:30:56.929Z,51
2019-04-28T15:36:01.823Z,48
2019-04-28T15:41:22.206Z,13
2019-04-28T15:46:27.494Z,45
2019-04-28T15:51:32.383Z,27
2019-04-28T15:56:37.259Z,24
2019-04-28T16:01:42.698Z,13
2019-04-28T16:06:48.420Z,40
2019-04-28T16:11:53.849Z,39
2019-04-28T16:16:59.010Z,13
2019-04-28T16:22:04.172Z,36
2019-04-28T16:27:09.892Z,34
2019-04-28T16:32:15.325Z,33
2019-04-28T16:37:20.774Z,31
2019-04-28T16:42:25.944Z,30
2019-04-28T16:47:31.659Z,31
2019-04-28T16:52:35.981Z,14
2019-04-28T16:57:40.876Z,30
2019-04-28T17:02:45.752Z,16
2019-04-28T17:07:54.621Z,25
2019-04-28T17:12:59.776Z,11
2019-04-28T17:18:04.669Z,21
2019-04-28T17:23:09.816Z,20
2019-04-28T17:28:15.577Z,18
2019-04-28T17:33:20.747Z,17
2019-04-28T17:38:25.615Z,16
2019-04-28T17:43:31.048Z,14
2019-04-28T17:48:36.240Z,13
2019-04-28T17:53:41.070Z,11
2019-04-28T17:58:46.507Z,8
2019-04-28T18:03:51.376Z,5
2019-04-28T18:08:56.529Z,4
2019-04-28T18:14:04.532Z,3
2019-04-28T18:19:09.956Z,2
2019-04-28T18:24:15.108Z,2
2019-04-28T18:29:19.969Z,2
2019-04-28T18:34:25.401Z,1
2019-04-28T18:39:30.541Z,1
2019-04-28T18:44:35.402Z,0
2019-04-28T18:49:40.551Z,0
2019-04-28T18:54:45.965Z,1
2019-04-28T18:59:50.837Z,0
2019-04-28T19:04:55.979Z,0
2019-04-28T19:10:00.844Z,0
2019-04-28T19:15:05.996Z,0
2019-04-28T19:20:14.107Z,0
2019-04-28T19:25:19.530Z,0
2019-04-28T19:30:24.951Z,0
2019-04-28T19:35:29.535Z,0
2019-04-28T19:40:34.949Z,0
2019-04-28T19:45:40.365Z,0
2019-04-28T19:50:45.227Z,0
2019-04-28T19:55:50.356Z,0
2019-04-28T20:00:55.772Z,0
2019-04-28T20:06:01.185Z,0
2019-04-28T20:11:06.319Z,0
2019-04-28T20:16:11.741Z,0
2019-04-28T20:21:16.609Z,0
2019-04-28T20:26:21.471Z,0
2019-04-28T20:31:26.313Z,0
2019-04-28T20:36:33.907Z,0
2019-04-28T20:41:39.606Z,0
2019-04-28T20:46:44.456Z,0
2019-04-28T20:51:48.750Z,0
2019-04-28T20:56:53.881Z,0
2019-04-28T21:01:59.291Z,0
2019-04-28T21:07:04.695Z,0
2019-04-28T21:12:10.105Z,0
2019-04-28T21:17:15.380Z,0
2019-04-28T21:22:20.505Z,0
2019-04-28T21:27:25.088Z,0
2019-04-28T21:32:30.321Z,0
2019-04-28T21:37:35.202Z,0
2019-04-28T21:42:40.151Z,0
2019-04-28T21:47:45.279Z,0
2019-04-28T21:52:50.961Z,0
2019-04-28T21:57:56.377Z,0
2019-04-28T22:03:01.787Z,0
2019-04-28T22:08:06.627Z,0
2019-04-28T22:13:12.309Z,0
2019-04-28T22:18:17.987Z,0
2019-04-28T22:23:23.110Z,0
2019-04-28T22:28:28.228Z,0
2019-04-28T22:33:33.633Z,0
2019-04-28T22:38:38.761Z,0
2019-04-28T22:43:44.437Z,0
2019-04-28T22:48:49.284Z,0
2019-04-28T22:53:54.957Z,0
2019-04-28T22:59:00.358Z,0
2019-04-28T23:04:04.927Z,0
2019-04-28T23:09:10.048Z,0
2019-04-28T23:14:15.166Z,0
2019-04-28T23:19:20.279Z,0
2019-04-28T23:24:25.681Z,0
2019-04-28T23:29:32.468Z,0
2019-04-28T23:34:37.866Z,0
2019-04-28T23:39:42.431Z,0
2019-04-28T23:44:47.556Z,0
2019-04-28T23:49:52.952Z,0
2019-04-28T23:54:58.068Z,0
